Time;durP1;ratioP1;P1;durP2;ratioP2;P2;SDS_P1;SDS_P2;PMS_P1;PMS_P2;Temp;Humidity;BMP_temperature;BMP_pressure;BME280_temperature;BME280_humidity;BME280_pressure;Samples;Min_cycle;Max_cycle;Signal;HPM_P1;HPM_P2
2023/07/11 00:02:09;;;;;;;616.08;561.35;;;16.60;99.90;;;;;;5013853;28;20493;-63
2023/07/11 00:04:38;;;;;;;723.10;654.75;;;16.60;23.90;;;;;;5013184;28;20557;-63
2023/07/11 00:07:05;;;;;;;965.47;728.35;;;16.70;1.00;;;;;;5021195;28;20429;-63
2023/07/11 00:09:34;;;;;;;0.95;0.93;;;16.70;1.00;;;;;;5010796;28;20932;-64
2023/07/11 00:12:01;;;;;;;4.90;4.65;;;16.70;1.00;;;;;;5025373;28;20534;-63
2023/07/11 00:14:28;;;;;;;13.10;12.13;;;16.70;99.90;;;;;;5023039;28;20430;-63
2023/07/11 00:16:55;;;;;;;128.85;119.30;;;16.70;99.90;;;;;;5004369;28;20469;-63
2023/07/11 00:19:24;;;;;;;169.93;155.75;;;16.60;99.90;;;;;;5015712;28;20467;-63
2023/07/11 00:21:51;;;;;;;25.77;23.40;;;16.50;99.90;;;;;;5017891;28;21543;-63
2023/07/11 00:24:19;;;;;;;0.40;0.40;;;16.50;99.90;;;;;;5012763;28;21286;-63
2023/07/11 00:26:46;;;;;;;0.85;0.85;;;16.50;1.00;;;;;;5007646;28;20463;-64
2023/07/11 00:29:16;;;;;;;0.40;0.40;;;16.50;1.00;;;;;;5010091;28;21087;-64
2023/07/11 00:31:43;;;;;;;0.60;0.40;;;16.50;1.00;;;;;;5002006;28;20907;-64
2023/07/11 00:34:10;;;;;;;99.60;90.30;;;16.40;99.90;;;;;;5027041;28;20547;-64
2023/07/11 00:36:37;;;;;;;0.30;0.30;;;16.40;99.90;;;;;;5028068;28;20842;-64
2023/07/11 00:39:06;;;;;;;1.00;1.00;;;16.40;99.90;;;;;;5023470;28;20457;-64
2023/07/11 00:41:32;;;;;;;324.92;286.58;;;16.30;99.90;;;;;;5016384;28;22626;-64
2023/07/11 00:44:00;;;;;;;76.60;69.40;;;16.20;99.90;;;;;;5009345;28;21997;-64
2023/07/11 00:46:28;;;;;;;0.30;0.30;;;16.20;1.00;;;;;;5019580;28;20564;-65
2023/07/11 00:48:59;;;;;;;0.23;0.23;;;16.20;99.90;;;;;;5020134;28;20438;-65
2023/07/11 00:51:53;;;;;;;18.48;17.23;;;16.20;99.90;;;;;;5021432;28;20924;-64
2023/07/11 00:54:26;;;;;;;8.30;7.75;;;16.20;99.90;;;;;;5013516;28;20469;-64
2023/07/11 00:56:55;;;;;;;0.55;0.55;;;16.20;99.90;;;;;;5024648;28;20446;-64
2023/07/11 00:59:23;;;;;;;1.13;0.70;;;16.20;99.90;;;;;;5025474;28;20436;-64
2023/07/11 01:02:16;;;;;;;0.38;0.32;;;16.20;99.90;;;;;;5026558;28;20535;-64
2023/07/11 01:04:46;;;;;;;0.50;0.50;;;16.20;99.90;;;;;;5022680;28;20520;-63
2023/07/11 01:07:27;;;;;;;0.40;0.40;;;16.10;99.90;;;;;;5023748;28;20443;-63
2023/07/11 01:09:54;;;;;;;0.55;0.55;;;16.10;99.90;;;;;;5023205;28;21458;-64
2023/07/11 01:12:21;;;;;;;0.55;0.55;;;16.10;99.90;;;;;;5021206;28;20430;-64
2023/07/11 01:14:50;;;;;;;1.50;1.00;;;16.00;99.90;;;;;;5027579;28;20531;-63
2023/07/11 01:17:23;;;;;;;0.20;0.20;;;16.00;1.00;;;;;;5024381;28;20435;-63
2023/07/11 01:19:51;;;;;;;0.30;0.30;;;16.00;29.90;;;;;;5024545;28;20635;-63
2023/07/11 01:22:18;;;;;;;0.30;0.30;;;16.00;99.90;;;;;;5018920;28;20437;-64
2023/07/11 01:24:45;;;;;;;0.80;0.80;;;16.00;99.90;;;;;;5024948;28;20969;-63
2023/07/11 01:27:12;;;;;;;0.38;0.38;;;16.00;1.00;;;;;;5024432;28;20534;-63
2023/07/11 01:29:41;;;;;;;0.50;0.50;;;16.00;99.90;;;;;;5022787;28;20434;-64
2023/07/11 01:32:10;;;;;;;0.50;0.50;;;15.90;99.90;;;;;;5020060;28;20797;-64
2023/07/11 01:34:39;;;;;;;0.55;0.55;;;15.80;99.90;;;;;;5017983;28;20444;-64
2023/07/11 01:37:06;;;;;;;0.30;0.30;;;15.80;40.00;;;;;;5021102;28;20442;-64
2023/07/11 01:39:33;;;;;;;0.63;0.63;;;15.80;99.90;;;;;;5020580;28;20469;-64
2023/07/11 01:42:03;;;;;;;0.70;0.70;;;15.70;99.90;;;;;;5024246;28;21044;-64
2023/07/11 01:44:31;;;;;;;0.28;0.28;;;15.70;99.90;;;;;;5020008;28;20525;-64
2023/07/11 01:47:01;;;;;;;2.20;0.60;;;15.70;99.90;;;;;;5022585;28;20525;-64
2023/07/11 01:49:30;;;;;;;0.60;0.60;;;15.60;1.00;;;;;;5022870;28;20447;-64
2023/07/11 01:52:14;;;;;;;0.50;0.50;;;15.60;26.00;;;;;;5018810;28;21172;-64
2023/07/11 01:54:41;;;;;;;0.38;0.38;;;15.60;99.90;;;;;;5022158;28;20493;-63
2023/07/11 01:57:10;;;;;;;1.10;0.55;;;15.50;1.00;;;;;;5022023;28;20444;-64
2023/07/11 01:59:38;;;;;;;0.60;0.60;;;15.60;1.00;;;;;;5019469;28;20439;-64
2023/07/11 02:02:05;;;;;;;3.03;2.72;;;15.50;1.00;;;;;;5025794;28;20479;-64
2023/07/11 02:04:34;;;;;;;0.28;0.28;;;15.40;1.00;;;;;;5021971;28;20457;-64
2023/07/11 02:07:02;;;;;;;225.43;204.13;;;15.30;1.00;;;;;;5020086;28;20435;-64
2023/07/11 02:09:30;;;;;;;47.35;43.83;;;15.20;1.00;;;;;;5015527;28;20446;-64
2023/07/11 02:11:57;;;;;;;115.20;105.00;;;15.10;99.90;;;;;;5003803;28;20438;-64
2023/07/11 02:14:26;;;;;;;539.53;487.58;;;15.10;99.90;;;;;;5018101;28;20441;-64
2023/07/11 02:16:53;;;;;;;773.95;694.47;;;15.10;99.90;;;;;;5017189;28;20440;-64
2023/07/11 02:19:22;;;;;;;360.50;327.95;;;15.10;99.90;;;;;;5015640;28;20533;-64
2023/07/11 02:21:49;;;;;;;799.53;714.77;;;15.20;99.90;;;;;;5021971;28;20487;-64
2023/07/11 02:24:17;;;;;;;870.27;713.57;;;15.30;99.90;;;;;;5020327;28;20479;-64
2023/07/11 02:26:47;;;;;;;784.70;708.65;;;15.40;99.90;;;;;;5018664;28;20524;-64
2023/07/11 02:29:14;;;;;;;22.85;21.35;;;15.50;99.90;;;;;;5021571;28;20435;-64
2023/07/11 02:31:41;;;;;;;14.45;13.52;;;15.60;99.90;;;;;;5021346;28;20581;-64
2023/07/11 02:34:08;;;;;;;57.97;53.67;;;15.70;99.90;;;;;;5020146;28;20461;-64
2023/07/11 02:36:35;;;;;;;29.58;27.48;;;15.70;99.90;;;;;;5004129;28;20920;-64
2023/07/11 02:39:02;;;;;;;336.80;306.63;;;15.80;99.90;;;;;;5018313;28;20546;-64
2023/07/11 02:41:28;;;;;;;2.22;2.22;;;15.80;78.50;;;;;;5021447;28;21493;-64
2023/07/11 02:43:56;;;;;;;0.70;0.47;;;15.80;1.00;;;;;;5018724;28;20458;-64
2023/07/11 02:46:23;;;;;;;128.80;117.72;;;15.90;15.60;;;;;;5017808;28;20528;-64
2023/07/11 02:48:50;;;;;;;527.97;481.63;;;16.00;1.00;;;;;;5003946;28;20438;-64
2023/07/11 02:51:17;;;;;;;667.67;596.60;;;16.00;1.00;;;;;;5019212;28;20911;-64
2023/07/11 02:53:44;;;;;;;862.85;752.38;;;15.90;99.90;;;;;;5020056;28;21074;-64
2023/07/11 02:56:11;;;;;;;665.38;609.38;;;15.80;87.40;;;;;;5021234;28;20533;-67
2023/07/11 02:58:38;;;;;;;428.33;392.50;;;15.70;99.90;;;;;;5015838;28;20435;-64
2023/07/11 03:01:05;;;;;;;889.10;749.78;;;15.60;99.90;;;;;;5019685;28;20427;-64
2023/07/11 03:03:32;;;;;;;968.33;706.70;;;15.60;60.10;;;;;;5003515;28;20438;-64
2023/07/11 03:05:59;;;;;;;919.17;743.85;;;15.50;1.00;;;;;;5019710;28;20438;-63
2023/07/11 03:08:26;;;;;;;939.83;726.70;;;15.40;1.00;;;;;;5014997;28;20499;-64
2023/07/11 03:10:57;;;;;;;677.70;611.80;;;15.20;1.00;;;;;;5003378;28;20434;-64
2023/07/11 03:13:28;;;;;;;329.05;302.52;;;15.10;99.90;;;;;;5020092;28;20536;-64
2023/07/11 03:15:55;;;;;;;28.30;25.40;;;15.00;99.90;;;;;;5014417;28;20430;-64
2023/07/11 03:18:23;;;;;;;795.45;728.80;;;14.80;99.90;;;;;;5016179;28;21179;-64
2023/07/11 03:20:50;;;;;;;162.23;150.20;;;14.70;1.00;;;;;;5016667;28;20434;-64
2023/07/11 03:23:20;;;;;;;0.73;0.73;;;14.60;1.00;;;;;;5020796;28;20436;-64
2023/07/11 03:25:47;;;;;;;0.33;0.33;;;14.50;1.00;;;;;;5020197;28;20518;-64
2023/07/11 03:28:14;;;;;;;304.67;265.98;;;14.50;99.90;;;;;;5002420;28;20447;-64
2023/07/11 03:30:44;;;;;;;847.47;623.78;;;14.40;99.90;;;;;;5016112;28;20463;-64
2023/07/11 03:33:12;;;;;;;844.92;592.88;;;14.40;99.90;;;;;;5004625;28;20442;-64
2023/07/11 03:35:39;;;;;;;895.92;616.80;;;14.40;99.90;;;;;;5017781;28;20453;-64
2023/07/11 03:38:06;;;;;;;553.83;485.45;;;14.40;99.90;;;;;;5015471;28;20442;-64
2023/07/11 03:40:32;;;;;;;383.20;332.67;;;14.50;1.00;;;;;;5015853;28;20432;-64
2023/07/11 03:43:00;;;;;;;896.00;616.00;;;14.60;1.00;;;;;;5017734;28;20449;-64
2023/07/11 03:45:26;;;;;;;858.30;589.47;;;14.60;1.00;;;;;;5019479;28;20466;-64
2023/07/11 03:47:53;;;;;;;875.83;618.83;;;14.60;1.00;;;;;;5002635;28;20528;-64
2023/07/11 03:50:21;;;;;;;905.50;646.85;;;14.70;1.00;;;;;;5017192;28;20428;-64
2023/07/11 03:52:47;;;;;;;915.22;651.72;;;14.80;1.00;;;;;;5018937;28;21007;-64
2023/07/11 03:55:17;;;;;;;815.47;673.22;;;14.90;1.00;;;;;;5001736;28;20441;-64
2023/07/11 03:57:44;;;;;;;891.58;644.90;;;15.00;99.90;;;;;;4993902;28;21009;-64
2023/07/11 04:00:12;;;;;;;870.50;630.47;;;15.00;99.90;;;;;;5018433;28;21040;-63
2023/07/11 04:02:41;;;;;;;921.88;646.85;;;15.00;99.90;;;;;;5003693;28;20976;-64
2023/07/11 04:05:08;;;;;;;847.78;631.15;;;15.10;99.90;;;;;;5016968;28;20435;-64
2023/07/11 04:07:35;;;;;;;836.00;638.50;;;15.10;99.90;;;;;;5016392;28;20431;-64
2023/07/11 04:10:05;;;;;;;841.42;646.92;;;15.20;99.90;;;;;;5019630;28;20437;-64
2023/07/11 04:12:31;;;;;;;883.28;649.40;;;15.20;99.90;;;;;;5018998;28;20479;-64
2023/07/11 04:14:58;;;;;;;855.45;636.08;;;15.40;99.90;;;;;;5015153;28;20482;-64
2023/07/11 04:17:25;;;;;;;856.13;641.20;;;15.50;99.90;;;;;;5017010;28;20515;-64
2023/07/11 04:19:52;;;;;;;834.55;658.70;;;15.50;99.90;;;;;;5017962;28;20518;-63
2023/07/11 04:22:19;;;;;;;894.28;642.90;;;15.60;99.90;;;;;;5000364;28;20434;-64
2023/07/11 04:24:46;;;;;;;895.13;652.58;;;15.70;99.90;;;;;;5012846;28;20440;-64
2023/07/11 04:27:14;;;;;;;890.78;660.45;;;15.80;90.10;;;;;;5017974;28;20435;-63
2023/07/11 04:29:42;;;;;;;141.85;132.00;;;15.90;3.70;;;;;;5019232;28;21260;-64
2023/07/11 04:32:12;;;;;;;875.67;659.08;;;16.00;1.00;;;;;;5017705;28;20496;-64
2023/07/11 04:34:40;;;;;;;900.28;667.63;;;16.10;1.00;;;;;;5014200;28;20444;-64
2023/07/11 04:37:09;;;;;;;908.83;676.70;;;16.20;1.00;;;;;;5011839;28;20452;-64
2023/07/11 04:39:39;;;;;;;926.80;692.65;;;16.30;1.00;;;;;;5014600;28;20446;-63
2023/07/11 04:42:06;;;;;;;901.63;706.00;;;16.50;1.00;;;;;;5014878;28;20432;-64
2023/07/11 04:44:33;;;;;;;861.45;707.65;;;16.70;1.00;;;;;;5018321;28;20914;-64
2023/07/11 04:47:00;;;;;;;702.67;630.63;;;17.00;1.00;;;;;;5016745;28;21177;-64
2023/07/11 04:49:28;;;;;;;954.65;737.28;;;17.60;1.00;;;;;;5020394;28;20444;-64
2023/07/11 04:51:55;;;;;;;963.70;766.13;;;18.60;99.90;;;;;;5018924;28;20443;-64
2023/07/11 04:54:25;;;;;;;862.88;770.08;;;19.50;99.90;;;;;;5021008;28;20428;-65
2023/07/11 04:56:58;;;;;;;867.00;777.27;;;20.30;1.00;;;;;;5005723;28;20453;-64
2023/07/11 04:59:26;;;;;;;899.73;799.63;;;21.10;99.90;;;;;;5022930;28;20433;-64
2023/07/11 05:01:53;;;;;;;652.53;592.15;;;21.90;99.90;;;;;;5018996;28;20467;-64
2023/07/11 05:04:20;;;;;;;701.75;632.28;;;22.50;99.90;;;;;;5022599;28;20441;-64
2023/07/11 05:06:50;;;;;;;985.23;823.37;;;22.90;99.90;;;;;;5020693;28;20442;-64
2023/07/11 05:09:17;;;;;;;675.50;613.63;;;23.40;99.90;;;;;;5022297;28;20497;-64
2023/07/11 05:11:44;;;;;;;946.70;839.87;;;23.60;99.90;;;;;;5020449;28;20508;-64
2023/07/11 05:14:11;;;;;;;764.92;695.03;;;24.00;99.90;;;;;;5020125;28;20436;-64
2023/07/11 05:16:38;;;;;;;459.50;417.67;;;23.90;99.90;;;;;;5024211;28;20893;-64
2023/07/11 05:19:05;;;;;;;606.90;542.42;;;24.00;99.90;;;;;;5008627;28;20449;-64
2023/07/11 05:21:32;;;;;;;562.78;512.80;;;24.00;99.90;;;;;;5021268;28;20485;-64
2023/07/11 05:24:01;;;;;;;741.33;671.33;;;24.00;99.90;;;;;;5022536;28;20435;-64
2023/07/11 05:26:29;;;;;;;419.95;378.25;;;24.20;99.90;;;;;;5021116;28;20436;-64
2023/07/11 05:28:56;;;;;;;185.48;170.30;;;24.60;99.90;;;;;;5021332;28;20435;-64
2023/07/11 05:31:24;;;;;;;247.75;223.82;;;24.40;99.90;;;;;;5019298;28;20429;-64
2023/07/11 05:33:53;;;;;;;956.50;852.67;;;24.60;99.90;;;;;;5016760;28;20517;-64
2023/07/11 05:36:33;;;;;;;367.58;332.98;;;24.60;98.80;;;;;;5023486;28;20432;-64
2023/07/11 05:39:04;;;;;;;927.58;833.22;;;24.70;98.60;;;;;;5019735;28;20932;-64
2023/07/11 05:41:32;;;;;;;903.55;821.40;;;24.80;96.90;;;;;;5016967;28;20516;-64
2023/07/11 05:43:59;;;;;;;760.97;692.65;;;25.00;97.00;;;;;;5019027;28;20438;-64
2023/07/11 05:46:27;;;;;;;703.00;639.10;;;24.90;96.20;;;;;;5022196;28;20427;-64
2023/07/11 05:48:55;;;;;;;909.72;818.20;;;25.10;95.60;;;;;;5007971;28;20439;-63
2023/07/11 05:51:24;;;;;;;946.55;852.33;;;25.20;95.20;;;;;;5003501;28;20557;-63
2023/07/11 05:53:52;;;;;;;796.38;724.40;;;25.20;93.60;;;;;;5015590;28;20516;-64
2023/07/11 05:56:20;;;;;;;647.27;587.27;;;24.90;93.00;;;;;;5016820;28;20556;-64
2023/07/11 05:58:48;;;;;;;945.83;853.33;;;25.40;94.30;;;;;;5013708;28;20499;-64
2023/07/11 06:01:34;;;;;;;962.70;860.60;;;25.40;93.40;;;;;;5016134;28;20444;-65
2023/07/11 06:04:11;;;;;;;749.70;674.10;;;25.80;99.90;;;;;;5008880;28;22261;-64
2023/07/11 06:06:42;;;;;;;156.50;143.80;;;26.50;95.60;;;;;;5014542;28;20445;-64
2023/07/11 06:09:16;;;;;;;438.15;395.25;;;27.10;95.00;;;;;;5021336;28;20442;-64
2023/07/11 06:11:45;;;;;;;949.92;864.00;;;27.30;94.30;;;;;;5010304;28;20442;-64
2023/07/11 06:14:14;;;;;;;56.73;52.67;;;27.70;94.60;;;;;;4990561;28;20469;-64
2023/07/11 06:16:41;;;;;;;235.10;213.60;;;27.70;93.90;;;;;;5010866;28;20445;-64
2023/07/11 06:19:09;;;;;;;167.48;151.73;;;27.80;94.20;;;;;;5009349;28;20512;-64
2023/07/11 06:21:35;;;;;;;21.13;19.83;;;27.70;92.50;;;;;;5014996;28;20477;-63
2023/07/11 06:24:02;;;;;;;435.48;391.23;;;27.80;91.90;;;;;;5008397;28;20457;-64
2023/07/11 06:26:29;;;;;;;319.17;289.60;;;28.20;92.70;;;;;;4993358;28;20434;-64
2023/07/11 06:28:56;;;;;;;312.92;282.85;;;28.40;92.70;;;;;;5013742;28;20439;-64
2023/07/11 06:31:23;;;;;;;95.63;88.43;;;28.50;92.50;;;;;;5011137;28;20435;-64
2023/07/11 06:33:50;;;;;;;65.43;60.70;;;28.70;92.40;;;;;;5010530;28;20461;-64
2023/07/11 06:36:17;;;;;;;450.45;407.45;;;29.00;92.70;;;;;;5016296;28;20992;-64
2023/07/11 06:38:44;;;;;;;842.35;765.67;;;29.50;93.40;;;;;;5010495;28;20447;-63
2023/07/11 06:41:11;;;;;;;0.57;0.57;;;29.70;93.40;;;;;;5012707;28;20439;-64
2023/07/11 06:43:41;;;;;;;36.75;34.33;;;29.80;93.00;;;;;;5002500;28;20559;-64
2023/07/11 06:46:09;;;;;;;83.60;76.72;;;29.70;91.90;;;;;;5009298;28;20430;-64
2023/07/11 06:48:36;;;;;;;456.45;413.67;;;29.70;91.60;;;;;;5005906;28;20432;-63
2023/07/11 06:51:04;;;;;;;11.68;11.02;;;29.70;90.80;;;;;;5009679;28;20490;-64
2023/07/11 06:53:34;;;;;;;2.37;2.27;;;29.80;90.70;;;;;;5013212;28;21249;-64
2023/07/11 06:56:01;;;;;;;11.98;11.27;;;29.60;89.70;;;;;;4993676;28;20447;-64
2023/07/11 06:58:29;;;;;;;0.88;0.88;;;30.00;89.50;;;;;;5011443;28;23272;-63
2023/07/11 07:01:04;;;;;;;0.70;0.63;;;29.60;87.50;;;;;;5010756;28;20433;-64
2023/07/11 07:03:39;;;;;;;1.10;0.87;;;29.70;87.10;;;;;;5008384;28;20521;-63
2023/07/11 07:06:11;;;;;;;0.70;0.70;;;30.10;88.40;;;;;;5015610;28;20456;-64
2023/07/11 07:08:40;;;;;;;0.80;0.80;;;30.20;90.10;;;;;;5013107;28;20458;-64
2023/07/11 07:11:07;;;;;;;0.80;0.80;;;29.60;86.50;;;;;;5018648;28;20790;-63
2023/07/11 07:13:34;;;;;;;0.67;0.67;;;29.90;87.20;;;;;;4999461;28;20526;-64
2023/07/11 07:16:05;;;;;;;1.20;0.55;;;29.60;85.50;;;;;;5012206;28;20459;-64
2023/07/11 07:18:37;;;;;;;0.85;0.85;;;29.70;84.70;;;;;;5013116;28;20431;-63
2023/07/11 07:21:05;;;;;;;0.63;0.63;;;30.20;87.50;;;;;;5012552;28;20427;-63
2023/07/11 07:23:35;;;;;;;0.77;0.68;;;30.90;90.60;;;;;;5011921;28;20542;-63
2023/07/11 07:26:03;;;;;;;0.68;0.68;;;30.50;87.90;;;;;;5009842;28;20539;-63
2023/07/11 07:28:31;;;;;;;1.58;1.23;;;30.60;88.40;;;;;;5016486;28;20495;-63
2023/07/11 07:31:02;;;;;;;0.85;0.85;;;30.50;87.50;;;;;;5015390;28;20526;-63
2023/07/11 07:33:29;;;;;;;0.55;0.55;;;30.90;89.50;;;;;;5003691;28;20446;-63
2023/07/11 07:35:59;;;;;;;1.83;1.83;;;31.30;90.50;;;;;;5016863;28;20435;-63
2023/07/11 07:38:28;;;;;;;0.90;0.90;;;31.40;90.30;;;;;;5006159;28;20438;-63
2023/07/11 07:41:03;;;;;;;1.75;0.85;;;31.50;90.50;;;;;;5012420;28;20434;-63
2023/07/11 07:43:31;;;;;;;0.80;0.80;;;31.70;90.60;;;;;;5007213;28;20510;-63
2023/07/11 07:45:59;;;;;;;0.63;0.63;;;31.60;90.40;;;;;;5008589;28;20521;-63
2023/07/11 07:48:27;;;;;;;0.60;0.60;;;31.70;90.30;;;;;;4991656;28;20514;-61
2023/07/11 07:51:10;;;;;;;0.80;0.80;;;31.90;91.30;;;;;;5009887;28;20448;-61
2023/07/11 07:53:37;;;;;;;0.73;0.73;;;32.60;91.80;;;;;;5010205;28;20458;-61
2023/07/11 07:56:08;;;;;;;0.60;0.50;;;33.00;93.00;;;;;;5010558;28;20462;-61
2023/07/11 07:58:36;;;;;;;0.57;0.57;;;33.50;94.50;;;;;;5008952;28;20430;-62
2023/07/11 08:01:11;;;;;;;0.77;0.77;;;33.10;92.70;;;;;;5008086;28;20438;-62
2023/07/11 08:03:41;;;;;;;0.98;0.98;;;33.00;92.20;;;;;;5012286;28;20434;-62
2023/07/11 08:06:10;;;;;;;0.80;0.80;;;32.50;90.80;;;;;;5012497;28;20532;-61
2023/07/11 08:08:52;;;;;;;0.70;0.70;;;32.80;91.20;;;;;;5007556;28;20435;-62
2023/07/11 08:11:20;;;;;;;0.87;0.83;;;33.10;91.70;;;;;;5014949;28;20444;-61
2023/07/11 08:13:48;;;;;;;1.35;1.13;;;33.30;92.80;;;;;;5012486;28;20553;-62
2023/07/11 08:16:27;;;;;;;0.50;0.50;;;33.10;91.40;;;;;;4994075;28;20526;-62
2023/07/11 08:19:04;;;;;;;0.60;0.60;;;33.10;91.50;;;;;;4999274;28;20522;-62
2023/07/11 08:21:35;;;;;;;0.57;0.57;;;33.00;91.50;;;;;;5009757;28;20475;-61
2023/07/11 08:24:05;;;;;;;0.90;0.90;;;33.00;91.10;;;;;;5013698;28;20431;-62
2023/07/11 08:26:33;;;;;;;0.70;0.70;;;33.40;92.60;;;;;;5017365;28;20429;-62
2023/07/11 08:29:01;;;;;;;2.20;2.10;;;34.10;94.20;;;;;;5014367;28;20435;-62
2023/07/11 08:31:47;;;;;;;0.53;0.53;;;34.20;94.00;;;;;;5017372;28;20888;-61
2023/07/11 08:34:15;;;;;;;0.98;0.73;;;34.30;94.10;;;;;;5017414;28;21041;-62
2023/07/11 08:36:44;;;;;;;2.13;2.08;;;34.50;94.20;;;;;;5011273;28;20431;-62
2023/07/11 08:39:12;;;;;;;2.00;0.70;;;35.10;95.80;;;;;;4994900;28;20434;-62
2023/07/11 08:41:50;;;;;;;2.03;2.03;;;34.60;94.60;;;;;;5011035;28;20564;-62
2023/07/11 08:44:20;;;;;;;19.05;17.98;;;34.50;93.90;;;;;;5015347;28;20429;-62
2023/07/11 08:47:09;;;;;;;19.95;18.10;;;34.10;93.40;;;;;;5010053;28;20447;-62
2023/07/11 08:49:47;;;;;;;5.15;4.95;;;32.90;89.90;;;;;;5010457;28;20499;-62
2023/07/11 08:52:14;;;;;;;0.70;0.70;;;32.70;88.90;;;;;;5015334;28;20476;-62
2023/07/11 08:55:04;;;;;;;2.60;2.50;;;33.30;90.90;;;;;;5016198;28;20441;-62
2023/07/11 08:57:37;;;;;;;1.42;1.42;;;34.00;92.60;;;;;;5015865;28;21502;-62
2023/07/11 09:00:16;;;;;;;49.33;45.83;;;34.40;93.80;;;;;;5006817;28;20432;-62
2023/07/11 09:02:57;;;;;;;27.13;25.25;;;33.90;92.50;;;;;;5010552;28;20441;-62
2023/07/11 09:05:53;;;;;;;1.48;0.77;;;33.70;92.00;;;;;;5015009;28;20573;-62
2023/07/11 09:08:20;;;;;;;0.97;0.97;;;34.10;93.00;;;;;;5009682;28;20518;-62
2023/07/11 09:11:06;;;;;;;0.40;0.40;;;34.10;92.90;;;;;;5011593;28;20749;-63
2023/07/11 09:13:49;;;;;;;0.68;0.68;;;34.00;92.80;;;;;;5014022;28;20527;-62
2023/07/11 09:16:31;;;;;;;12.75;12.13;;;34.00;93.00;;;;;;5011507;28;20544;-62
2023/07/11 09:19:23;;;;;;;0.90;0.90;;;33.60;91.60;;;;;;5015197;28;20431;-62
2023/07/11 09:22:04;;;;;;;85.65;79.25;;;33.30;91.00;;;;;;5013186;28;20443;-62
2023/07/11 09:24:42;;;;;;;22.85;21.33;;;33.90;92.30;;;;;;5018209;28;20427;-62
2023/07/11 09:27:52;;;;;;;137.18;125.90;;;34.30;93.20;;;;;;5017613;28;20588;-62
2023/07/11 09:30:40;;;;;;;18.25;17.08;;;34.70;94.20;;;;;;4934762;28;20440;-62
2023/07/11 09:33:30;;;;;;;2.10;1.30;;;34.30;93.50;;;;;;4939854;28;20462;-61
2023/07/11 09:35:59;;;;;;;32.30;30.25;;;34.80;94.60;;;;;;4931701;28;20446;-62
2023/07/11 09:38:32;;;;;;;22.55;21.08;;;35.30;95.70;;;;;;4939184;28;20446;-63
2023/07/11 09:41:15;;;;;;;10.77;10.20;;;34.60;93.90;;;;;;4917459;28;20449;-62
2023/07/11 09:43:43;;;;;;;0.60;0.60;;;34.20;93.20;;;;;;4934986;28;20446;-62
2023/07/11 09:46:21;;;;;;;26.83;24.85;;;34.50;93.80;;;;;;4935333;28;20438;-62
2023/07/11 09:48:53;;;;;;;0.80;0.80;;;34.20;96.70;;;;;;4934244;28;20922;-63
2023/07/11 09:51:44;;;;;;;0.82;0.82;;;34.30;93.40;;;;;;4932673;28;20456;-62
2023/07/11 09:54:23;;;;;;;1.25;1.15;;;34.30;93.40;;;;;;4923354;28;20820;-61
2023/07/11 09:56:55;;;;;;;0.95;0.95;;;34.30;94.20;;;;;;4916614;28;20438;-62
2023/07/11 09:59:22;;;;;;;2.45;2.35;;;34.40;94.20;;;;;;4934879;28;21396;-62
2023/07/11 10:01:55;;;;;;;91.05;82.97;;;34.10;93.30;;;;;;4986303;28;20786;-63
2023/07/11 10:04:24;;;;;;;989.80;889.53;;;34.60;94.50;;;;;;5011726;28;20427;-62
2023/07/11 10:07:05;;;;;;;1062.18;946.55;;;34.10;93.40;;;;;;5009737;28;20474;-62
2023/07/11 10:09:45;;;;;;;1082.32;964.80;;;34.40;93.90;;;;;;5004636;28;20513;-63
2023/07/11 10:12:24;;;;;;;1067.72;951.45;;;34.90;95.40;;;;;;5010455;28;20834;-61
2023/07/11 10:14:57;;;;;;;1025.25;931.97;;;34.60;94.60;;;;;;4993115;28;20430;-62
2023/07/11 10:17:33;;;;;;;1080.13;968.83;;;34.40;94.40;;;;;;5008129;28;20439;-62
2023/07/11 10:20:04;;;;;;;2.72;2.63;;;35.00;95.20;;;;;;5007867;28;20526;-63
2023/07/11 10:22:49;;;;;;;0.85;0.85;;;34.60;94.90;;;;;;5005099;28;20435;-63
2023/07/11 10:25:21;;;;;;;12.63;11.63;;;34.70;95.00;;;;;;5004369;28;20458;-62
2023/07/11 10:28:05;;;;;;;81.97;75.07;;;34.60;94.90;;;;;;5005790;28;21014;-62
2023/07/11 10:30:36;;;;;;;406.58;367.05;;;34.20;93.90;;;;;;5008458;28;20508;-63
2023/07/11 10:33:06;;;;;;;1.80;1.80;;;34.20;94.10;;;;;;5003929;28;20496;-62
2023/07/11 10:36:08;;;;;;;54.80;50.20;;;34.10;93.70;;;;;;5005525;28;20441;-63
2023/07/11 10:38:51;;;;;;;2.03;2.03;;;34.90;95.60;;;;;;5005285;28;23509;-63
2023/07/11 10:41:32;;;;;;;18.60;17.05;;;35.70;97.80;;;;;;5014939;28;20540;-64
2023/07/11 10:44:01;;;;;;;534.08;485.10;;;36.20;99.60;;;;;;5003165;28;20451;-64
2023/07/11 10:46:34;;;;;;;880.00;801.27;;;35.80;98.10;;;;;;5007884;28;20470;-62
2023/07/11 10:49:23;;;;;;;521.42;473.30;;;35.20;96.70;;;;;;5007510;28;21329;-62
2023/07/11 10:51:57;;;;;;;3.53;3.40;;;35.40;97.30;;;;;;4990705;28;20435;-63
2023/07/11 10:54:36;;;;;;;38.63;35.67;;;35.50;97.50;;;;;;5006401;28;21578;-63
2023/07/11 10:57:13;;;;;;;693.85;630.83;;;35.40;97.50;;;;;;5009671;28;20472;-63
2023/07/11 10:59:53;;;;;;;302.27;274.77;;;35.00;96.60;;;;;;5007496;28;20439;-63
2023/07/11 11:02:50;;;;;;;77.63;70.95;;;34.60;95.80;;;;;;5006503;28;20499;-62
2023/07/11 11:05:54;;;;;;;483.17;437.70;;;34.00;94.50;;;;;;4975016;28;22131;-63
2023/07/11 11:08:45;;;;;;;2.40;0.90;;;34.10;94.50;;;;;;5002742;28;20444;-62
2023/07/11 11:11:31;;;;;;;42.93;39.00;;;34.90;96.90;;;;;;5009457;28;20449;-63
2023/07/11 11:14:26;;;;;;;289.13;263.63;;;35.40;98.40;;;;;;5010116;28;20513;-63
2023/07/11 11:17:17;;;;;;;852.20;774.78;;;35.40;98.50;;;;;;5012502;28;20531;-63
2023/07/11 11:20:09;;;;;;;51.17;47.70;;;35.30;98.70;;;;;;5010865;28;20443;-63
2023/07/11 11:22:53;;;;;;;121.85;111.28;;;35.10;97.60;;;;;;5005270;28;20518;-63
2023/07/11 11:25:27;;;;;;;48.45;44.05;;;34.60;96.80;;;;;;5008546;28;20442;-62
2023/07/11 11:28:30;;;;;;;0.70;0.70;;;35.00;98.30;;;;;;5009798;28;20435;-63
2023/07/11 11:31:10;;;;;;;1.02;0.93;;;35.30;98.30;;;;;;5009578;28;20445;-62
2023/07/11 11:33:49;;;;;;;0.95;0.90;;;35.60;99.40;;;;;;5006952;28;20436;-63
2023/07/11 11:36:29;;;;;;;1.08;1.08;;;35.90;99.90;;;;;;5011272;28;20463;-63
2023/07/11 11:39:18;;;;;;;904.50;813.90;;;36.10;99.90;;;;;;5009091;28;20442;-63
2023/07/11 11:41:56;;;;;;;6.18;5.60;;;35.70;99.60;;;;;;5011698;28;20435;-64
2023/07/11 11:44:43;;;;;;;1.40;0.95;;;36.00;99.90;;;;;;4989690;28;20453;-63
2023/07/11 11:47:14;;;;;;;1.25;1.15;;;36.00;99.90;;;;;;5016931;28;20813;-63
2023/07/11 11:49:48;;;;;;;202.80;185.13;;;35.40;99.30;;;;;;5017311;28;20461;-64
2023/07/11 11:52:24;;;;;;;1.15;1.15;;;35.00;97.70;;;;;;5013798;28;21497;-62
2023/07/11 11:54:56;;;;;;;0.80;0.80;;;35.20;98.00;;;;;;4995291;28;20569;-63
2023/07/11 11:57:32;;;;;;;1.00;1.00;;;35.10;98.10;;;;;;5012211;28;20617;-63
2023/07/11 12:00:01;;;;;;;1.80;1.27;;;35.30;98.30;;;;;;5009691;28;20852;-63
2023/07/11 12:02:37;;;;;;;1.20;1.00;;;35.40;98.80;;;;;;4993543;28;20438;-63
2023/07/11 12:05:06;;;;;;;1.20;1.05;;;35.90;99.70;;;;;;5006702;28;20468;-65
2023/07/11 12:07:38;;;;;;;0.90;0.90;;;36.40;99.90;;;;;;5013451;28;20434;-64
2023/07/11 12:10:13;;;;;;;1.25;1.15;;;36.70;99.90;;;;;;5012778;28;20588;-64
2023/07/11 12:13:15;;;;;;;1.40;1.30;;;36.90;99.90;;;;;;5016456;28;20446;-64
2023/07/11 12:15:48;;;;;;;0.75;0.75;;;36.80;99.90;;;;;;5014647;28;20431;-63
2023/07/11 12:18:38;;;;;;;0.60;0.60;;;37.20;99.90;;;;;;5030112;28;20469;-63
2023/07/11 12:21:12;;;;;;;1.08;1.08;;;37.30;99.90;;;;;;5031745;28;20468;-64
2023/07/11 12:23:48;;;;;;;4.07;1.10;;;36.90;99.90;;;;;;5031575;28;20496;-63
2023/07/11 12:26:34;;;;;;;1.00;1.00;;;36.70;99.90;;;;;;5023792;28;20424;-65
2023/07/11 12:29:42;;;;;;;1.13;1.13;;;36.60;99.90;;;;;;5036038;28;20972;-64
2023/07/11 12:32:28;;;;;;;1.65;1.55;;;36.50;99.90;;;;;;5033151;28;20448;-63
2023/07/11 12:34:56;;;;;;;1.30;1.00;;;36.10;99.90;;;;;;5005849;28;20477;-64
2023/07/11 12:37:27;;;;;;;2.50;2.33;;;36.20;99.90;;;;;;5022920;28;20462;-65
2023/07/11 12:40:07;;;;;;;3.53;3.35;;;35.20;98.30;;;;;;5026409;28;20906;-63
2023/07/11 12:42:53;;;;;;;1.05;1.05;;;35.10;97.90;;;;;;5027833;28;20439;-63
2023/07/11 12:45:25;;;;;;;0.90;0.90;;;35.20;98.50;;;;;;5013981;28;20812;-63
2023/07/11 12:48:03;;;;;;;1.95;1.92;;;35.00;97.90;;;;;;5009614;28;20488;-63
2023/07/11 12:50:51;;;;;;;0.73;0.73;;;35.40;99.90;;;;;;5013827;28;20479;-64
2023/07/11 12:53:18;;;;;;;62.75;56.85;;;35.70;99.40;;;;;;5012628;28;21028;-64
2023/07/11 12:55:50;;;;;;;1013.03;926.92;;;35.60;99.30;;;;;;5010504;28;20731;-63